CNV2 weather

Inverness (Consolidated Memorial Hospital) Heliport
Inverness, Nova Scotia, Canada

Public forecast

Using degrees Celsius for public forecast. Weather courtesy of forecast.io.

Closest aviation weather report (METAR) to Inverness (Consolidated Memorial Hospital) Heliport

Closest report is Port Hawkesbury Airport, 32.7 nm (60.6 km) S. Retrieved 2020/07/12 10:00 UTC (18 minutes ago):

CYPD 121000Z AUTO 14008KT 1 1/4SM BR OVC002 19/19 A2983 RMK SLP103 DENSITY ALT 1000FT

Closest aviation forecast (TAF) to Inverness (Consolidated Memorial Hospital) Heliport

Closest forecast is Sydney / J.A. Douglas McCurdy Airport, 51.8 nm (95.9 km) E. Retrieved 2020/07/12 06:42 UTC (4 hours ago):

TAF CYQY 120539Z 1206/1218 18008KT 11/2SM -SHRA BR OVC004 TEMPO 1206/1212 1/2SM FG VV002 PROB40 1206/1212 1/4SM FG VV001 FM121200 19010KT 4SM -DZ BR OVC004 RMK NXT FCST BY 121200Z